createdAt,value
2019-05-21T00:00:35.646Z,0.00
2019-05-21T00:01:35.680Z,0.00
2019-05-21T00:02:35.708Z,0.00
2019-05-21T00:03:35.738Z,0.00
2019-05-21T00:04:35.771Z,0.00
2019-05-21T00:05:35.801Z,0.00
2019-05-21T00:06:35.837Z,0.00
2019-05-21T00:07:35.863Z,0.00
2019-05-21T00:08:35.895Z,0.00
2019-05-21T00:09:35.924Z,0.00
2019-05-21T00:10:35.959Z,0.00
2019-05-21T00:11:35.988Z,0.00
2019-05-21T00:12:36.016Z,0.00
2019-05-21T00:13:36.048Z,0.00
2019-05-21T00:14:36.079Z,0.00
2019-05-21T00:15:36.109Z,0.00
2019-05-21T00:16:36.142Z,0.00
2019-05-21T00:17:36.171Z,0.00
2019-05-21T00:18:36.608Z,0.00
2019-05-21T00:19:36.233Z,0.00
2019-05-21T00:20:36.265Z,0.00
2019-05-21T00:21:36.295Z,0.00
2019-05-21T00:22:36.521Z,0.00
2019-05-21T00:23:36.354Z,0.00
2019-05-21T00:24:36.439Z,0.00
2019-05-21T00:25:36.420Z,0.00
2019-05-21T00:26:36.451Z,0.00
2019-05-21T00:27:36.484Z,0.00
2019-05-21T00:28:36.510Z,0.00
2019-05-21T00:29:36.541Z,0.00
2019-05-21T00:30:36.572Z,0.00
2019-05-21T00:31:36.602Z,0.00
2019-05-21T00:32:36.634Z,0.00
2019-05-21T00:33:36.666Z,0.00
2019-05-21T00:34:43.889Z,0.00
2019-05-21T00:35:36.727Z,0.00
2019-05-21T00:36:36.763Z,0.00
2019-05-21T00:37:36.791Z,0.00
2019-05-21T00:38:36.846Z,0.00
2019-05-21T00:39:36.850Z,0.00
2019-05-21T00:40:36.882Z,0.00
2019-05-21T00:41:36.919Z,0.00
2019-05-21T00:42:37.361Z,0.00
2019-05-21T00:43:36.990Z,0.00
2019-05-21T00:44:37.009Z,0.00
2019-05-21T00:45:37.038Z,0.00
2019-05-21T00:46:37.071Z,0.00
2019-05-21T00:47:37.099Z,0.00
2019-05-21T00:48:37.130Z,0.00
2019-05-21T00:49:37.163Z,0.00
2019-05-21T00:50:37.192Z,0.00
2019-05-21T00:51:37.222Z,0.00
2019-05-21T00:52:37.254Z,0.00
2019-05-21T00:53:37.284Z,0.00
2019-05-21T00:54:37.324Z,0.00
2019-05-21T00:55:37.346Z,0.00
2019-05-21T00:56:37.377Z,0.00
2019-05-21T00:57:37.409Z,0.00
2019-05-21T00:58:37.441Z,0.00
2019-05-21T00:59:37.477Z,0.00
2019-05-21T01:00:37.501Z,0.00
2019-05-21T01:01:37.533Z,0.00
2019-05-21T01:02:37.564Z,0.00
2019-05-21T01:03:37.647Z,0.00
2019-05-21T01:04:37.625Z,0.00
2019-05-21T01:05:37.657Z,0.00
2019-05-21T01:06:37.689Z,0.00
2019-05-21T01:07:37.721Z,0.00
2019-05-21T01:08:37.751Z,0.00
2019-05-21T01:09:37.782Z,0.00
2019-05-21T01:10:37.817Z,0.00
2019-05-21T01:11:37.842Z,0.00
2019-05-21T01:12:37.875Z,0.00
2019-05-21T01:13:37.907Z,0.00
2019-05-21T01:14:37.936Z,0.00
2019-05-21T01:15:37.965Z,0.00
2019-05-21T01:16:39.204Z,0.00
2019-05-21T01:17:38.030Z,0.00
2019-05-21T01:18:38.060Z,0.00
2019-05-21T01:19:38.093Z,0.00
2019-05-21T01:20:38.123Z,0.00
2019-05-21T01:21:38.153Z,0.00
2019-05-21T01:22:38.184Z,0.00
2019-05-21T01:23:38.214Z,0.00
2019-05-21T01:24:38.245Z,0.00
2019-05-21T01:25:38.277Z,0.00
2019-05-21T01:26:38.307Z,0.00
2019-05-21T01:27:38.338Z,0.00
2019-05-21T01:28:38.369Z,0.00
2019-05-21T01:29:38.405Z,0.00
2019-05-21T01:30:38.432Z,0.00
2019-05-21T01:32:38.497Z,0.00
2019-05-21T01:33:38.525Z,0.00
2019-05-21T01:34:38.556Z,0.00
2019-05-21T01:35:38.586Z,0.00
2019-05-21T01:36:38.618Z,0.00
2019-05-21T01:37:38.650Z,0.00
2019-05-21T01:38:38.744Z,0.00
2019-05-21T01:39:38.710Z,0.00
2019-05-21T01:40:38.742Z,0.00
2019-05-21T01:41:38.773Z,0.00
2019-05-21T01:42:38.805Z,0.00
2019-05-21T01:43:38.836Z,0.00
2019-05-21T01:44:38.866Z,0.00
2019-05-21T01:45:38.899Z,0.00
2019-05-21T01:46:38.930Z,0.00
2019-05-21T01:47:38.959Z,0.00
2019-05-21T01:48:38.990Z,0.00
2019-05-21T01:49:39.923Z,0.00
2019-05-21T01:50:39.054Z,0.00
2019-05-21T01:51:39.083Z,0.00
2019-05-21T01:52:39.115Z,0.00
2019-05-21T01:53:39.145Z,0.00
2019-05-21T01:54:39.178Z,0.00
2019-05-21T01:55:39.207Z,0.00
2019-05-21T01:56:39.241Z,0.00
2019-05-21T01:57:39.269Z,0.00
2019-05-21T01:58:39.301Z,0.00
2019-05-21T01:59:39.335Z,0.00
2019-05-21T02:00:39.368Z,0.00
2019-05-21T02:01:39.394Z,0.00
2019-05-21T02:02:39.424Z,0.00
2019-05-21T02:03:39.455Z,0.00
2019-05-21T02:04:39.486Z,0.00
2019-05-21T02:05:39.518Z,0.00
2019-05-21T02:06:39.548Z,0.00
2019-05-21T02:07:39.578Z,0.00
2019-05-21T02:08:39.610Z,0.00
2019-05-21T02:09:39.640Z,0.00
2019-05-21T02:10:39.674Z,0.00
2019-05-21T02:11:39.703Z,0.00
2019-05-21T02:12:39.733Z,0.00
2019-05-21T02:13:39.765Z,0.00
2019-05-21T02:14:39.795Z,0.00
2019-05-21T02:15:39.825Z,0.00
2019-05-21T02:16:39.859Z,0.00
2019-05-21T02:17:39.887Z,0.00
2019-05-21T02:18:39.919Z,0.00
2019-05-21T02:19:39.951Z,0.00
2019-05-21T02:20:39.981Z,0.00
2019-05-21T02:21:40.030Z,0.00
2019-05-21T02:22:40.043Z,0.00
2019-05-21T02:23:40.072Z,0.00
2019-05-21T02:24:40.102Z,0.00
2019-05-21T02:25:40.144Z,0.00
2019-05-21T02:26:40.165Z,0.00
2019-05-21T02:27:40.196Z,0.00
2019-05-21T02:28:40.227Z,0.00
2019-05-21T02:29:40.257Z,0.00
2019-05-21T02:30:40.289Z,0.00
2019-05-21T02:31:40.319Z,0.00
2019-05-21T02:32:40.351Z,0.00
2019-05-21T02:33:46.173Z,0.00
2019-05-21T02:34:40.412Z,0.00
2019-05-21T02:35:53.823Z,0.00
2019-05-21T02:36:40.476Z,0.00
2019-05-21T02:37:40.509Z,0.00
2019-05-21T02:38:40.536Z,0.00
2019-05-21T02:39:40.567Z,0.00
2019-05-21T02:40:40.597Z,0.00
2019-05-21T02:41:40.657Z,0.00
2019-05-21T02:42:40.660Z,0.00
2019-05-21T02:43:40.691Z,0.00
2019-05-21T02:44:40.723Z,0.00
2019-05-21T02:45:40.764Z,0.00
2019-05-21T02:46:40.783Z,0.00
2019-05-21T02:47:40.813Z,0.00
2019-05-21T02:48:40.846Z,0.00
2019-05-21T02:49:40.884Z,0.00
2019-05-21T02:50:40.906Z,0.00
2019-05-21T02:51:40.942Z,0.00
2019-05-21T02:52:40.968Z,0.00
2019-05-21T02:53:41.001Z,0.00
2019-05-21T02:54:42.028Z,0.00
2019-05-21T02:55:41.062Z,0.00
2019-05-21T02:56:41.097Z,0.00
2019-05-21T02:57:41.161Z,0.00
2019-05-21T02:58:41.198Z,0.00
2019-05-21T02:59:41.184Z,0.00
2019-05-21T03:00:41.216Z,0.00
2019-05-21T03:01:41.246Z,0.00
2019-05-21T03:02:41.278Z,0.00
2019-05-21T03:03:41.308Z,0.00
2019-05-21T03:04:41.338Z,0.00
2019-05-21T03:05:41.371Z,0.00
2019-05-21T03:06:45.108Z,0.00
2019-05-21T03:07:41.431Z,0.00
2019-05-21T03:08:41.479Z,0.00
2019-05-21T03:09:41.494Z,0.00
2019-05-21T03:10:41.524Z,0.00
2019-05-21T03:11:41.555Z,0.00
2019-05-21T03:12:41.587Z,0.00
2019-05-21T03:13:41.620Z,0.00
2019-05-21T03:14:41.648Z,0.00
2019-05-21T03:15:41.697Z,0.00
2019-05-21T03:16:41.710Z,0.00
2019-05-21T03:17:41.741Z,0.00
2019-05-21T03:18:41.772Z,0.00
2019-05-21T03:19:41.803Z,0.00
2019-05-21T03:20:41.833Z,0.00
2019-05-21T03:21:41.865Z,0.00
2019-05-21T03:22:41.904Z,0.00
2019-05-21T03:23:41.927Z,4.00
2019-05-21T03:24:41.957Z,4.00
2019-05-21T03:25:41.987Z,4.00
2019-05-21T03:26:42.018Z,0.00
2019-05-21T03:27:42.051Z,4.00
2019-05-21T03:28:42.089Z,4.00
2019-05-21T03:29:42.121Z,4.00
2019-05-21T03:30:42.145Z,8.00
2019-05-21T03:31:42.178Z,4.00
2019-05-21T03:32:42.208Z,8.00
2019-05-21T03:33:42.241Z,8.00
2019-05-21T03:34:42.274Z,8.00
2019-05-21T03:35:42.305Z,12.00
2019-05-21T03:36:42.328Z,12.00
2019-05-21T03:37:42.365Z,12.00
2019-05-21T03:38:42.394Z,16.00
2019-05-21T03:39:42.432Z,16.00
2019-05-21T03:40:42.453Z,20.00
2019-05-21T03:41:42.489Z,20.00
2019-05-21T03:42:42.516Z,20.00
2019-05-21T03:43:42.543Z,20.00
2019-05-21T03:44:58.399Z,24.00
2019-05-21T03:45:42.629Z,24.00
2019-05-21T03:46:42.649Z,32.00
2019-05-21T03:47:42.668Z,32.00
2019-05-21T03:48:42.699Z,32.00
2019-05-21T03:49:42.728Z,32.00
2019-05-21T03:50:42.762Z,36.00
2019-05-21T03:51:42.792Z,40.00
2019-05-21T03:52:42.834Z,44.00
2019-05-21T03:53:42.855Z,44.00
2019-05-21T03:54:42.885Z,44.00
2019-05-21T03:55:42.922Z,40.00
2019-05-21T03:56:42.946Z,48.00
2019-05-21T03:57:42.989Z,48.00
2019-05-21T03:58:43.018Z,52.00
2019-05-21T03:59:43.041Z,52.00
2019-05-21T04:00:43.118Z,52.00
2019-05-21T04:01:43.100Z,56.00
2019-05-21T04:02:43.131Z,60.00
2019-05-21T04:03:43.165Z,60.00
2019-05-21T04:04:43.194Z,68.00
2019-05-21T04:05:43.226Z,68.00
2019-05-21T04:06:51.930Z,72.00
2019-05-21T04:07:43.287Z,76.00
2019-05-21T04:08:43.318Z,80.00
2019-05-21T04:09:43.349Z,80.00
2019-05-21T04:10:43.434Z,80.00
2019-05-21T04:11:43.417Z,88.00
2019-05-21T04:12:43.440Z,84.00
2019-05-21T04:13:43.474Z,92.00
2019-05-21T04:14:43.502Z,96.00
2019-05-21T04:15:43.545Z,100.00
2019-05-21T04:16:43.563Z,100.00
2019-05-21T04:17:43.595Z,96.00
2019-05-21T04:18:43.629Z,96.00
2019-05-21T04:19:43.657Z,96.00
2019-05-21T04:20:43.685Z,96.00
2019-05-21T04:21:43.722Z,100.00
2019-05-21T04:22:43.749Z,112.00
2019-05-21T04:23:43.783Z,128.00
2019-05-21T04:24:43.810Z,132.00
2019-05-21T04:25:43.842Z,132.00
2019-05-21T04:26:43.873Z,132.00
2019-05-21T04:27:43.902Z,128.00
2019-05-21T04:28:43.943Z,132.00
2019-05-21T04:29:43.964Z,128.00
2019-05-21T04:30:43.998Z,132.00
2019-05-21T04:31:44.041Z,136.00
2019-05-21T04:32:44.057Z,140.00
2019-05-21T04:33:44.088Z,144.00
2019-05-21T04:34:44.134Z,144.00
2019-05-21T04:35:44.150Z,156.00
2019-05-21T04:36:44.182Z,160.00
2019-05-21T04:37:44.212Z,172.00
2019-05-21T04:38:44.244Z,188.00
2019-05-21T04:39:44.280Z,188.00
2019-05-21T04:40:44.304Z,192.00
2019-05-21T04:41:44.338Z,200.00
2019-05-21T04:42:44.367Z,212.00
2019-05-21T04:43:44.401Z,220.00
2019-05-21T04:44:44.430Z,228.00
2019-05-21T04:45:44.462Z,232.00
2019-05-21T04:46:44.492Z,236.00
2019-05-21T04:47:44.522Z,236.00
2019-05-21T04:48:44.552Z,244.00
2019-05-21T04:49:44.583Z,248.00
2019-05-21T04:50:44.615Z,240.00
2019-05-21T04:51:44.645Z,236.00
2019-05-21T04:52:44.678Z,244.00
2019-05-21T04:53:44.707Z,240.00
2019-05-21T05:00:42.287Z,300.00
2019-05-21T05:01:42.317Z,328.00
2019-05-21T05:02:43.360Z,336.00
2019-05-21T05:03:42.381Z,336.00
2019-05-21T05:04:42.409Z,316.00
2019-05-21T05:05:42.440Z,292.00
2019-05-21T05:06:42.470Z,292.00
2019-05-21T05:07:42.509Z,304.00
2019-05-21T05:08:42.534Z,320.00
2019-05-21T05:09:42.563Z,340.00
2019-05-21T05:10:42.895Z,356.00
2019-05-21T05:11:42.625Z,352.00
2019-05-21T05:12:42.656Z,340.00
2019-05-21T05:13:42.687Z,344.00
2019-05-21T05:14:42.718Z,356.00
2019-05-21T05:15:42.749Z,376.00
2019-05-21T05:16:42.781Z,392.00
2019-05-21T05:17:43.039Z,372.00
2019-05-21T05:18:43.043Z,380.00
2019-05-21T05:19:42.873Z,428.00
2019-05-21T05:20:42.904Z,448.00
2019-05-21T05:21:42.935Z,428.00
2019-05-21T05:22:42.969Z,396.00
2019-05-21T05:23:42.998Z,352.00
2019-05-21T05:24:43.028Z,336.00
2019-05-21T05:25:43.057Z,332.00
2019-05-21T05:26:43.091Z,324.00
2019-05-21T05:27:43.133Z,312.00
2019-05-21T05:28:43.150Z,320.00
2019-05-21T05:29:43.233Z,360.00
2019-05-21T05:30:43.211Z,408.00
2019-05-21T05:31:43.242Z,436.00
2019-05-21T05:32:43.276Z,432.00
2019-05-21T05:33:43.307Z,460.00
2019-05-21T05:34:43.336Z,432.00
2019-05-21T05:35:43.370Z,408.00
2019-05-21T05:36:43.600Z,412.00
2019-05-21T05:37:47.880Z,444.00
2019-05-21T05:38:43.459Z,452.00
2019-05-21T05:39:43.491Z,480.00
2019-05-21T05:40:43.522Z,528.00
2019-05-21T05:41:43.554Z,532.00
2019-05-21T05:42:43.589Z,532.00
2019-05-21T05:43:43.661Z,524.00
2019-05-21T05:44:43.645Z,516.00
2019-05-21T05:45:43.677Z,508.00
2019-05-21T05:46:43.707Z,520.00
2019-05-21T05:47:43.739Z,496.00
2019-05-21T05:48:43.769Z,488.00
2019-05-21T05:49:43.800Z,488.00
2019-05-21T05:50:43.833Z,484.00
2019-05-21T05:51:43.865Z,492.00
2019-05-21T05:52:43.895Z,540.00
2019-05-21T05:53:43.924Z,572.00
2019-05-21T05:54:43.954Z,580.00
2019-05-21T05:55:43.985Z,568.00
2019-05-21T05:56:44.019Z,580.00
2019-05-21T05:57:44.059Z,608.00
2019-05-21T05:59:44.109Z,568.00
2019-05-21T06:00:44.150Z,520.00
2019-05-21T06:01:44.182Z,448.00
2019-05-21T06:02:44.206Z,428.00
2019-05-21T06:04:44.266Z,480.00
2019-05-21T06:05:44.295Z,508.00
2019-05-21T06:06:44.334Z,516.00
2019-05-21T06:07:58.625Z,488.00
2019-05-21T06:08:44.389Z,436.00
2019-05-21T06:09:44.419Z,444.00
2019-05-21T06:11:44.884Z,512.00
2019-05-21T06:12:44.515Z,488.00
2019-05-21T06:13:45.008Z,488.00
2019-05-21T06:14:44.593Z,524.00
2019-05-21T06:15:44.613Z,592.00
2019-05-21T06:16:44.669Z,680.00
2019-05-21T06:17:44.670Z,760.00
2019-05-21T06:18:44.697Z,844.00
2019-05-21T06:19:44.730Z,892.00
2019-05-21T06:20:44.760Z,960.00
2019-05-21T06:21:44.791Z,1044.00
2019-05-21T06:22:44.821Z,1140.00
2019-05-21T06:23:44.860Z,1176.00
2019-05-21T06:24:44.882Z,1156.00
2019-05-21T06:25:44.916Z,1200.00
2019-05-21T06:26:44.947Z,1276.00
2019-05-21T06:27:44.974Z,1252.00
2019-05-21T06:28:45.020Z,1268.00
2019-05-21T06:29:45.038Z,1268.00
2019-05-21T06:30:45.068Z,1260.00
2019-05-21T06:35:54.367Z,1384.00
2019-05-21T06:36:54.399Z,1320.00
2019-05-21T06:37:54.431Z,1360.00
2019-05-21T06:39:54.693Z,1956.00
2019-05-21T06:40:54.538Z,2272.00
2019-05-21T06:41:54.554Z,2456.00
2019-05-21T06:42:54.584Z,2428.00
2019-05-21T06:43:54.617Z,2328.00
2019-05-21T06:44:54.645Z,2316.00
2019-05-21T06:45:54.682Z,2284.00
2019-05-21T06:46:54.706Z,2464.00
2019-05-21T06:47:54.738Z,2440.00
2019-05-21T06:48:54.770Z,2144.00
2019-05-21T06:49:54.810Z,1928.00
2019-05-21T06:50:54.832Z,1876.00
2019-05-21T06:51:54.866Z,2016.00
2019-05-21T06:52:54.894Z,2076.00
2019-05-21T06:53:54.925Z,2020.00
2019-05-21T06:54:54.955Z,1924.00
2019-05-21T06:55:54.990Z,1972.00
2019-05-21T06:56:55.019Z,2092.00
2019-05-21T06:57:55.051Z,2096.00
2019-05-21T06:58:55.079Z,2052.00
2019-05-21T06:59:55.110Z,2148.00
2019-05-21T07:00:55.142Z,2236.00
2019-05-21T07:01:55.177Z,2336.00
2019-05-21T07:02:55.207Z,2316.00
2019-05-21T07:03:55.483Z,2000.00
2019-05-21T07:04:55.472Z,1948.00
2019-05-21T07:05:58.745Z,2296.00
2019-05-21T07:06:55.328Z,2588.00
2019-05-21T07:07:55.359Z,2600.00
2019-05-21T07:08:55.393Z,2404.00
2019-05-21T07:09:55.422Z,2048.00
2019-05-21T07:10:55.451Z,1752.00
2019-05-21T07:11:55.488Z,1812.00
2019-05-21T07:12:55.521Z,1988.00
2019-05-21T07:13:55.551Z,1792.00
2019-05-21T07:14:55.578Z,1824.00
2019-05-21T07:15:55.609Z,2068.00
2019-05-21T07:16:55.638Z,2140.00
2019-05-21T07:18:55.702Z,3240.00
2019-05-21T07:19:55.732Z,3772.00
2019-05-21T07:20:55.762Z,3644.00
2019-05-21T07:22:11.155Z,3332.00
2019-05-21T07:22:55.839Z,2800.00
2019-05-21T07:24:55.890Z,2572.00
2019-05-21T07:25:55.917Z,2564.00
2019-05-21T07:26:55.947Z,2332.00
2019-05-21T07:27:55.979Z,2288.00
2019-05-21T07:29:56.088Z,2576.00
2019-05-21T07:30:56.096Z,2500.00
2019-05-21T07:31:56.105Z,2628.00
2019-05-21T07:32:56.178Z,2828.00
2019-05-21T07:33:56.167Z,2808.00
2019-05-21T07:34:56.196Z,2780.00
2019-05-21T07:35:56.232Z,2780.00
2019-05-21T07:36:56.258Z,2760.00
2019-05-21T07:37:56.290Z,2884.00
2019-05-21T07:38:56.320Z,3020.00
2019-05-21T07:40:29.562Z,3000.00
2019-05-21T07:40:57.596Z,2908.00
2019-05-21T07:41:56.619Z,2872.00
2019-05-21T07:42:56.445Z,2908.00
2019-05-21T07:43:56.481Z,3240.00
2019-05-21T07:44:56.508Z,3052.00
2019-05-21T07:45:56.740Z,2372.00
2019-05-21T07:47:56.599Z,2756.00
2019-05-21T07:48:56.630Z,3596.00
2019-05-21T07:49:56.669Z,4232.00
2019-05-21T07:50:56.692Z,4152.00
2019-05-21T07:51:56.730Z,4004.00
2019-05-21T07:52:56.756Z,4320.00
2019-05-21T07:53:56.787Z,4248.00
2019-05-21T07:54:56.818Z,4244.00
2019-05-21T07:55:56.847Z,4644.00
2019-05-21T07:56:56.939Z,4500.00
2019-05-21T07:57:56.910Z,3640.00
2019-05-21T07:58:56.941Z,3072.00
2019-05-21T07:59:56.971Z,3232.00
2019-05-21T08:01:00.927Z,3304.00
2019-05-21T08:01:57.035Z,3720.00
2019-05-21T08:02:57.065Z,3604.00
2019-05-21T08:03:57.096Z,2932.00
2019-05-21T08:04:57.130Z,2748.00
2019-05-21T08:05:57.159Z,2852.00
2019-05-21T08:06:57.189Z,3240.00
2019-05-21T08:07:57.220Z,3808.00
2019-05-21T08:09:12.699Z,4540.00
2019-05-21T08:09:57.354Z,4820.00
2019-05-21T08:10:57.313Z,4772.00
2019-05-21T08:11:57.343Z,4288.00
2019-05-21T08:12:57.376Z,3896.00
2019-05-21T08:13:57.406Z,3468.00
2019-05-21T08:14:57.506Z,3212.00
2019-05-21T08:15:57.470Z,3508.00
2019-05-21T08:16:57.500Z,3528.00
2019-05-21T08:17:57.531Z,3412.00
2019-05-21T08:18:57.562Z,2684.00
2019-05-21T08:20:08.716Z,2216.00
2019-05-21T08:20:57.623Z,2208.00
2019-05-21T08:21:57.654Z,2140.00
2019-05-21T08:22:57.684Z,1892.00
2019-05-21T08:23:57.714Z,1784.00
2019-05-21T08:24:57.748Z,1896.00
2019-05-21T08:26:57.807Z,2492.00
2019-05-21T08:27:57.839Z,3000.00
2019-05-21T08:28:57.870Z,3404.00
2019-05-21T08:29:57.901Z,3524.00
2019-05-21T08:31:01.484Z,3148.00
2019-05-21T08:31:57.965Z,2696.00
2019-05-21T08:32:57.993Z,2452.00
2019-05-21T08:33:58.037Z,2600.00
2019-05-21T08:34:58.055Z,2984.00
2019-05-21T08:35:58.085Z,3660.00
2019-05-21T08:36:58.142Z,4364.00
2019-05-21T08:37:58.155Z,4636.00
2019-05-21T08:38:58.185Z,4580.00
2019-05-21T08:39:58.210Z,3580.00
2019-05-21T08:40:58.239Z,3224.00
2019-05-21T08:41:58.277Z,3024.00
2019-05-21T08:42:58.304Z,2840.00
2019-05-21T08:43:58.331Z,3132.00
2019-05-21T08:44:58.365Z,2868.00
2019-05-21T08:45:58.395Z,2772.00
2019-05-21T08:46:58.426Z,2912.00
2019-05-21T08:47:58.459Z,3132.00
2019-05-21T08:48:58.488Z,3124.00
2019-05-21T08:49:58.518Z,2872.00
2019-05-21T08:52:58.626Z,2508.00
2019-05-21T08:53:58.672Z,2192.00
2019-05-21T08:54:58.673Z,1928.00
2019-05-21T08:55:58.713Z,1884.00
2019-05-21T08:56:58.743Z,2052.00
2019-05-21T08:58:07.038Z,2376.00
2019-05-21T08:58:58.797Z,2648.00
2019-05-21T08:59:58.845Z,2696.00
2019-05-21T09:00:58.862Z,3304.00
2019-05-21T09:01:59.284Z,3816.00
2019-05-21T09:02:58.919Z,3860.00
2019-05-21T09:04:58.985Z,3412.00
2019-05-21T09:05:59.014Z,3244.00
2019-05-21T09:06:59.045Z,3384.00
2019-05-21T09:07:59.074Z,3336.00
2019-05-21T09:08:59.106Z,2912.00
2019-05-21T09:09:59.175Z,2724.00
2019-05-21T09:10:59.172Z,2908.00
2019-05-21T09:11:59.202Z,3168.00
2019-05-21T09:12:59.230Z,3040.00
2019-05-21T09:13:59.264Z,3300.00
2019-05-21T09:14:59.290Z,3652.00
2019-05-21T09:15:59.393Z,4356.00
2019-05-21T09:16:59.354Z,3648.00
2019-05-21T09:17:59.386Z,3264.00
2019-05-21T09:18:59.415Z,3312.00
2019-05-21T09:19:59.446Z,2996.00
2019-05-21T09:20:59.477Z,2556.00
2019-05-21T09:21:59.508Z,2604.00
2019-05-21T09:22:59.538Z,3292.00
2019-05-21T09:23:59.570Z,3760.00
2019-05-21T09:24:59.600Z,3780.00
2019-05-21T09:25:59.632Z,4664.00
2019-05-21T09:26:59.673Z,4636.00
2019-05-21T09:27:59.695Z,4500.00
2019-05-21T09:28:59.728Z,4664.00
2019-05-21T09:29:59.758Z,4416.00
2019-05-21T09:31:01.949Z,3320.00
2019-05-21T09:31:59.820Z,3300.00
2019-05-21T09:33:00.058Z,4036.00
2019-05-21T09:33:59.881Z,4124.00
2019-05-21T09:34:59.912Z,3848.00
2019-05-21T09:35:59.941Z,3436.00
2019-05-21T09:36:59.975Z,3844.00
2019-05-21T09:38:00.004Z,3332.00
2019-05-21T09:39:00.036Z,3076.00
2019-05-21T09:40:00.387Z,2680.00
2019-05-21T09:41:00.103Z,3104.00
2019-05-21T09:42:00.132Z,3092.00
2019-05-21T09:43:00.159Z,2900.00
2019-05-21T09:44:00.194Z,2868.00
2019-05-21T09:45:00.221Z,3600.00
2019-05-21T09:46:00.455Z,4028.00
2019-05-21T09:47:00.310Z,4040.00
2019-05-21T09:48:00.332Z,3892.00
2019-05-21T09:49:00.346Z,4692.00
2019-05-21T09:50:00.559Z,5564.00
2019-05-21T09:51:00.411Z,4848.00
2019-05-21T09:52:00.438Z,3800.00
2019-05-21T09:53:00.473Z,3656.00
2019-05-21T09:54:00.503Z,3996.00
2019-05-21T09:55:00.530Z,3200.00
2019-05-21T09:56:00.563Z,2792.00
2019-05-21T09:57:00.598Z,3088.00
2019-05-21T09:58:00.627Z,3440.00
2019-05-21T09:59:00.655Z,3556.00
2019-05-21T10:00:00.708Z,3380.00
2019-05-21T10:01:00.719Z,3636.00
2019-05-21T10:02:00.749Z,3804.00
2019-05-21T10:03:00.781Z,3732.00
2019-05-21T10:04:00.811Z,4468.00
2019-05-21T10:05:00.843Z,4964.00
2019-05-21T10:06:00.875Z,4632.00
2019-05-21T10:07:00.955Z,4004.00
2019-05-21T10:08:00.936Z,4252.00
2019-05-21T10:09:00.971Z,5048.00
2019-05-21T10:10:00.998Z,4892.00
2019-05-21T10:11:01.029Z,5468.00
2019-05-21T10:12:01.112Z,6136.00
2019-05-21T10:13:01.091Z,6896.00
2019-05-21T10:14:01.123Z,7052.00
2019-05-21T10:15:01.209Z,6676.00
2019-05-21T10:16:01.693Z,6024.00
2019-05-21T10:17:01.215Z,5400.00
2019-05-21T10:18:01.252Z,5324.00
2019-05-21T10:19:01.281Z,4892.00
2019-05-21T10:20:01.309Z,4436.00
2019-05-21T10:21:01.351Z,4532.00
2019-05-21T10:22:01.389Z,4344.00
2019-05-21T10:23:01.463Z,3736.00
2019-05-21T10:24:01.435Z,4292.00
2019-05-21T10:25:01.465Z,5568.00
2019-05-21T10:26:01.498Z,5280.00
2019-05-21T10:27:03.514Z,5736.00
2019-05-21T10:28:01.558Z,4756.00
2019-05-21T10:29:01.595Z,4208.00
2019-05-21T10:30:01.698Z,5104.00
2019-05-21T10:31:01.652Z,4524.00
2019-05-21T10:32:01.684Z,4112.00
2019-05-21T10:33:01.715Z,3980.00
2019-05-21T10:34:01.747Z,4184.00
2019-05-21T10:35:01.815Z,4888.00
2019-05-21T10:36:01.812Z,5088.00
2019-05-21T10:37:01.892Z,5544.00
2019-05-21T10:38:01.868Z,5236.00
2019-05-21T10:39:02.285Z,4720.00
2019-05-21T10:40:02.582Z,5400.00
2019-05-21T10:41:02.034Z,5444.00
2019-05-21T10:42:01.993Z,4072.00
2019-05-21T10:43:02.028Z,4296.00
2019-05-21T10:44:02.057Z,4776.00
2019-05-21T10:45:02.091Z,3804.00
2019-05-21T10:46:02.117Z,4300.00
2019-05-21T10:47:02.149Z,4504.00
2019-05-21T10:48:02.187Z,4072.00
2019-05-21T10:49:02.215Z,4360.00
2019-05-21T10:50:02.279Z,3704.00
2019-05-21T10:51:02.273Z,4120.00
2019-05-21T10:52:02.307Z,4744.00
2019-05-21T10:53:02.335Z,4944.00
2019-05-21T10:54:02.376Z,4980.00
2019-05-21T10:55:02.398Z,5536.00
2019-05-21T10:56:02.527Z,4736.00
2019-05-21T10:57:02.494Z,4072.00
2019-05-21T10:58:02.492Z,4156.00
2019-05-21T10:59:02.522Z,4472.00
2019-05-21T11:00:02.554Z,3524.00
2019-05-21T11:01:02.588Z,2996.00
2019-05-21T11:02:02.618Z,3984.00
2019-05-21T11:03:02.651Z,3976.00
2019-05-21T11:04:02.678Z,3964.00
2019-05-21T11:05:02.720Z,4888.00
2019-05-21T11:06:10.125Z,4624.00
2019-05-21T11:07:02.770Z,4264.00
2019-05-21T11:08:23.081Z,6596.00
2019-05-21T11:09:02.833Z,6784.00
2019-05-21T11:10:02.893Z,7056.00
2019-05-21T11:11:02.895Z,6660.00
2019-05-21T11:12:02.927Z,6664.00
2019-05-21T11:13:02.962Z,6536.00
2019-05-21T11:14:02.989Z,6092.00
2019-05-21T11:15:03.027Z,5280.00
2019-05-21T11:16:03.107Z,5340.00
2019-05-21T11:17:03.091Z,5120.00
2019-05-21T11:18:11.666Z,5508.00
2019-05-21T11:19:03.148Z,6480.00
2019-05-21T11:20:03.175Z,6952.00
2019-05-21T11:21:03.209Z,5472.00
2019-05-21T11:22:03.241Z,4956.00
2019-05-21T11:23:03.269Z,5884.00
2019-05-21T11:24:03.383Z,6216.00
2019-05-21T11:25:03.333Z,7744.00
2019-05-21T11:26:03.483Z,8836.00
2019-05-21T11:27:04.840Z,9772.00
2019-05-21T11:28:06.049Z,9532.00
2019-05-21T11:29:03.458Z,9400.00
2019-05-21T11:30:03.491Z,7248.00
2019-05-21T11:31:03.532Z,6784.00
2019-05-21T11:32:03.556Z,7468.00
2019-05-21T11:33:03.585Z,7348.00
2019-05-21T11:34:03.765Z,7832.00
2019-05-21T11:35:03.645Z,6756.00
2019-05-21T11:36:03.677Z,7772.00
2019-05-21T11:37:03.753Z,7204.00
2019-05-21T11:38:03.740Z,6796.00
2019-05-21T11:39:03.770Z,7188.00
2019-05-21T11:40:03.802Z,7160.00
2019-05-21T11:41:03.850Z,8396.00
2019-05-21T11:42:03.867Z,9808.00
2019-05-21T11:43:03.898Z,9372.00
2019-05-21T11:44:03.928Z,8176.00
2019-05-21T11:45:03.962Z,7244.00
2019-05-21T11:46:03.993Z,7780.00
2019-05-21T11:47:04.023Z,7136.00
2019-05-21T11:48:04.058Z,7140.00
2019-05-21T11:49:04.090Z,8116.00
2019-05-21T11:50:04.124Z,7620.00
2019-05-21T11:51:04.150Z,8796.00
2019-05-21T11:52:04.204Z,9504.00
2019-05-21T11:53:04.214Z,8408.00
2019-05-21T11:54:04.246Z,7052.00
2019-05-21T11:55:04.298Z,7096.00
2019-05-21T11:56:04.312Z,8084.00
2019-05-21T11:57:04.439Z,8656.00
2019-05-21T11:58:04.424Z,7212.00
2019-05-21T11:59:04.404Z,7000.00
2019-05-21T12:00:04.436Z,7084.00
2019-05-21T12:01:04.566Z,7068.00
2019-05-21T12:02:04.505Z,7540.00
2019-05-21T12:03:04.534Z,6788.00
2019-05-21T12:04:04.567Z,6684.00
2019-05-21T12:05:04.600Z,6924.00
2019-05-21T12:06:04.629Z,7472.00
2019-05-21T12:07:04.661Z,6368.00
2019-05-21T12:08:04.692Z,5596.00
2019-05-21T12:09:04.722Z,5956.00
2019-05-21T12:10:04.757Z,6224.00
2019-05-21T12:11:04.794Z,6456.00
2019-05-21T12:12:04.819Z,6552.00
2019-05-21T12:13:04.855Z,6276.00
2019-05-21T12:14:04.935Z,6124.00
2019-05-21T12:15:04.915Z,5448.00
2019-05-21T12:16:04.947Z,5580.00
2019-05-21T12:17:04.979Z,6108.00
2019-05-21T12:18:05.015Z,6012.00
2019-05-21T12:19:07.972Z,5092.00
2019-05-21T12:20:05.100Z,5188.00
2019-05-21T12:21:05.105Z,5676.00
2019-05-21T12:22:05.137Z,6580.00
2019-05-21T12:23:05.173Z,8156.00
2019-05-21T12:24:05.204Z,8400.00
2019-05-21T12:25:05.233Z,7000.00
2019-05-21T12:26:05.265Z,5872.00
2019-05-21T12:27:05.297Z,5384.00
2019-05-21T12:28:05.326Z,5148.00
2019-05-21T12:29:05.366Z,4764.00
2019-05-21T12:30:05.393Z,4988.00
2019-05-21T12:31:05.422Z,4852.00
2019-05-21T12:32:05.454Z,5216.00
2019-05-21T12:33:05.489Z,4712.00
2019-05-21T12:34:05.521Z,4672.00
2019-05-21T12:35:05.548Z,4332.00
2019-05-21T12:36:05.582Z,3932.00
2019-05-21T12:37:05.617Z,3700.00
2019-05-21T12:38:05.644Z,4748.00
2019-05-21T12:39:14.276Z,5476.00
2019-05-21T12:40:05.707Z,6424.00
2019-05-21T12:41:05.738Z,6780.00
2019-05-21T12:42:05.972Z,7468.00
2019-05-21T12:43:05.802Z,6816.00
2019-05-21T12:44:05.834Z,6292.00
2019-05-21T12:45:05.864Z,6976.00
2019-05-21T12:46:05.915Z,7064.00
2019-05-21T12:47:09.580Z,6524.00
2019-05-21T12:48:05.959Z,6944.00
2019-05-21T12:49:06.000Z,7796.00
2019-05-21T12:50:06.025Z,7592.00
2019-05-21T12:51:06.054Z,8732.00
2019-05-21T12:52:06.094Z,8904.00
2019-05-21T12:53:06.130Z,7932.00
2019-05-21T12:54:06.151Z,7108.00
2019-05-21T12:55:06.184Z,7168.00